LICR Airport Information

Runway Information
Runway 11 Length 5574 ft width 148 ft
Elevation 38 ft Threshold 0 ft Heading 113
Runway 29 Length 5574 ft Width 148 ft
Elevation 43 ft Threshold 0 ft Heading 293
Runway 15 Length 6549 ft width 148 ft
Elevation 84 ft Threshold 840 ft Heading 153
Runway 33 Length 6549 ft Width 148 ft
Elevation 34 ft Threshold 164 ft Heading 333
Airport Frequencies
Type APP Name APP Frequency 120.275 MHZ
Type TWR Name TWR Frequency 118.25 MHZ
Airport Navaids
Type VOR-DME Name Reggio Calabria Frequency 111000 KHZ
Type NDB Name Reggio Calabria Frequency 325 KHZ
Airport Weather Information & NOTAM
ADDS - METARS form results

(0912 UTC 01 June 2020)
Data provider http://aviationweather.gov/metar/data/
 
METAR text: LICR 010850Z 03008KT 350V060 9999 -RA SCT030 19/14 Q1015 RMK VIS MIN 9999
Conditions at: LICR (REGGIO CALABRIA , IT) observed 0850 UTC 01 June 2020
Temperature: 19.0°C (66°F)
Dewpoint: 14.0°C (57°F) [RH = 73%]
Pressure (altimeter): 29.97 inches Hg (1015.0 mb)
Winds: from the NNE (30 degrees) at 9 MPH (8 knots; 4.1 m/s)
Visibility: 6 or more miles (10+ km)
Ceiling: at least 12,000 feet AGL
Clouds: scattered clouds at 3000 feet AGL
Weather: -RA  (light rain)